Time;durP1;ratioP1;P1;durP2;ratioP2;P2;SDS_P1;SDS_P2;PMS_P1;PMS_P2;Temp;Humidity;BMP_temperature;BMP_pressure;BME280_temperature;BME280_humidity;BME280_pressure;Samples;Min_cycle;Max_cycle;Signal;HPM_P1;HPM_P2
2021/09/15 00:01:20;;;;;;;16.05;9.20;;;;;;;;;;5021382;28;20481;-58
2021/09/15 00:03:45;;;;;;;17.23;9.35;;;;;;;;;;5019441;28;20501;-58
2021/09/15 00:06:12;;;;;;;18.60;8.85;;;;;;;;;;5018006;28;20053;-58
2021/09/15 00:08:37;;;;;;;13.48;9.07;;;;;;;;;;5018927;28;20095;-57
2021/09/15 00:11:03;;;;;;;14.32;8.15;;;;;;;;;;5017651;28;20495;-58
2021/09/15 00:13:28;;;;;;;13.50;8.80;;;;;;;;;;5018983;28;20066;-58
2021/09/15 00:15:54;;;;;;;17.48;9.48;;;;;;;;;;5018074;28;20029;-58
2021/09/15 00:18:19;;;;;;;14.13;9.00;;;;;;;;;;5016493;28;20132;-58
2021/09/15 00:20:45;;;;;;;13.70;8.82;;;;;;;;;;5019892;28;20033;-57
2021/09/15 00:23:10;;;;;;;14.82;9.07;;;;;;;;;;5016634;28;20039;-58
2021/09/15 00:25:35;;;;;;;13.88;9.00;;;;;;;;;;5024159;28;20076;-57
2021/09/15 00:28:01;;;;;;;14.80;9.15;;;;;;;;;;5019943;28;20033;-58
2021/09/15 00:30:26;;;;;;;14.13;9.32;;;;;;;;;;5019277;28;20087;-58
2021/09/15 00:32:52;;;;;;;11.95;9.00;;;;;;;;;;5019268;28;20101;-58
2021/09/15 00:35:17;;;;;;;17.50;9.43;;;;;;;;;;5017272;28;20463;-58
2021/09/15 00:37:43;;;;;;;14.98;9.05;;;;;;;;;;5015549;28;20364;-58
2021/09/15 00:40:10;;;;;;;14.25;9.60;;;;;;;;;;5020499;28;20029;-58
2021/09/15 00:42:36;;;;;;;13.20;9.25;;;;;;;;;;5018230;28;20049;-57
2021/09/15 00:45:01;;;;;;;14.20;9.75;;;;;;;;;;5012620;28;20022;-57
2021/09/15 00:47:27;;;;;;;15.38;9.77;;;;;;;;;;5018861;28;20433;-58
2021/09/15 00:49:52;;;;;;;17.35;10.50;;;;;;;;;;5014322;28;20057;-58
2021/09/15 00:52:19;;;;;;;15.95;9.93;;;;;;;;;;5020815;28;20037;-58
2021/09/15 00:54:44;;;;;;;16.50;10.20;;;;;;;;;;5021218;28;20416;-58
2021/09/15 00:57:10;;;;;;;17.20;9.77;;;;;;;;;;5021150;28;20030;-58
2021/09/15 00:59:35;;;;;;;12.65;9.52;;;;;;;;;;5018977;28;20053;-58
2021/09/15 01:02:01;;;;;;;14.93;9.50;;;;;;;;;;5016687;28;20033;-58
2021/09/15 01:04:26;;;;;;;14.80;10.60;;;;;;;;;;5014679;28;20038;-58
2021/09/15 01:06:52;;;;;;;17.25;10.00;;;;;;;;;;5023982;28;20041;-58
2021/09/15 01:09:18;;;;;;;18.67;11.07;;;;;;;;;;5019098;28;20172;-57
2021/09/15 01:11:44;;;;;;;17.95;10.45;;;;;;;;;;5027258;28;20033;-58
2021/09/15 01:14:11;;;;;;;15.35;9.43;;;;;;;;;;5017238;28;20052;-58
2021/09/15 01:16:55;;;;;;;16.13;10.43;;;;;;;;;;5021646;28;20404;-58
2021/09/15 01:19:23;;;;;;;16.90;10.73;;;;;;;;;;5018341;28;20025;-58
2021/09/15 01:21:52;;;;;;;17.27;10.15;;;;;;;;;;5026679;28;20033;-58
2021/09/15 01:24:17;;;;;;;14.55;10.10;;;;;;;;;;5022754;28;20539;-58
2021/09/15 01:26:43;;;;;;;15.57;9.65;;;;;;;;;;5017901;28;20117;-57
2021/09/15 01:29:16;;;;;;;17.25;10.35;;;;;;;;;;5021785;28;20385;-58
2021/09/15 01:32:08;;;;;;;15.63;9.68;;;;;;;;;;5023541;28;20551;-58
2021/09/15 01:34:36;;;;;;;18.40;9.77;;;;;;;;;;5014975;28;20468;-58
2021/09/15 01:37:03;;;;;;;20.38;9.73;;;;;;;;;;5020032;28;20029;-58
2021/09/15 01:39:29;;;;;;;18.80;10.50;;;;;;;;;;5019113;28;20067;-58
2021/09/15 01:42:02;;;;;;;16.00;9.95;;;;;;;;;;5022731;28;20071;-57
2021/09/15 01:44:36;;;;;;;14.25;9.57;;;;;;;;;;5016866;28;20022;-58
2021/09/15 01:47:03;;;;;;;15.57;9.90;;;;;;;;;;5021268;28;20034;-58
2021/09/15 01:49:30;;;;;;;15.30;9.98;;;;;;;;;;5018522;28;20046;-58
2021/09/15 01:51:57;;;;;;;18.95;10.45;;;;;;;;;;5016740;28;20022;-58
2021/09/15 01:54:23;;;;;;;15.90;9.40;;;;;;;;;;5022095;28;20060;-58
2021/09/15 01:56:48;;;;;;;14.27;9.00;;;;;;;;;;5023088;28;20087;-58
2021/09/15 01:59:14;;;;;;;17.55;8.85;;;;;;;;;;5023242;28;20028;-58
2021/09/15 02:01:39;;;;;;;15.82;9.20;;;;;;;;;;5015799;28;20040;-58
2021/09/15 02:04:05;;;;;;;18.23;9.55;;;;;;;;;;5024001;28;20112;-57
2021/09/15 02:06:30;;;;;;;14.02;8.73;;;;;;;;;;5018739;28;20021;-57
2021/09/15 02:08:56;;;;;;;16.00;9.35;;;;;;;;;;5018341;28;20032;-58
2021/09/15 02:11:21;;;;;;;13.13;8.57;;;;;;;;;;5028669;28;20065;-58
2021/09/15 02:13:46;;;;;;;15.05;9.30;;;;;;;;;;5018710;28;20024;-58
2021/09/15 02:16:12;;;;;;;13.77;8.13;;;;;;;;;;5016747;28;20387;-57
2021/09/15 02:18:38;;;;;;;17.05;8.88;;;;;;;;;;5025895;28;20464;-57
2021/09/15 02:21:03;;;;;;;18.60;8.68;;;;;;;;;;5022144;28;20475;-57
2021/09/15 02:23:29;;;;;;;15.30;8.43;;;;;;;;;;5014985;28;20242;-58
2021/09/15 02:25:54;;;;;;;14.38;8.13;;;;;;;;;;5018640;28;20104;-57
2021/09/15 02:28:19;;;;;;;14.95;8.63;;;;;;;;;;5022369;28;20033;-58
2021/09/15 02:30:45;;;;;;;14.95;8.38;;;;;;;;;;5020571;28;20116;-58
2021/09/15 02:33:10;;;;;;;16.58;8.65;;;;;;;;;;5020526;28;20107;-58
2021/09/15 02:35:36;;;;;;;13.65;8.27;;;;;;;;;;5024166;28;20558;-58
2021/09/15 02:38:01;;;;;;;14.38;8.63;;;;;;;;;;5015135;28;20033;-58
2021/09/15 02:40:26;;;;;;;13.68;8.45;;;;;;;;;;5020953;28;20026;-57
2021/09/15 02:42:52;;;;;;;14.90;8.15;;;;;;;;;;5021051;28;20494;-58
2021/09/15 02:45:17;;;;;;;13.90;8.07;;;;;;;;;;5019848;28;20051;-58
2021/09/15 02:47:43;;;;;;;11.45;8.32;;;;;;;;;;5019252;28;20022;-58
2021/09/15 02:50:09;;;;;;;15.75;8.50;;;;;;;;;;5019722;28;20431;-58
2021/09/15 02:52:34;;;;;;;15.15;8.57;;;;;;;;;;5012995;28;20518;-58
2021/09/15 02:54:59;;;;;;;17.17;8.85;;;;;;;;;;5013472;28;20462;-58
2021/09/15 02:57:25;;;;;;;15.20;8.73;;;;;;;;;;5022038;28;20061;-57
2021/09/15 02:59:50;;;;;;;13.98;9.27;;;;;;;;;;5023706;28;20476;-58
2021/09/15 03:02:16;;;;;;;15.75;8.32;;;;;;;;;;5020067;28;20457;-58
2021/09/15 03:04:41;;;;;;;13.43;8.77;;;;;;;;;;5018067;28;20037;-58
2021/09/15 03:07:06;;;;;;;12.35;8.55;;;;;;;;;;5020288;28;20022;-58
2021/09/15 03:09:32;;;;;;;13.23;8.57;;;;;;;;;;5013922;28;20026;-58
2021/09/15 03:11:57;;;;;;;19.45;9.13;;;;;;;;;;5018059;28;20030;-58
2021/09/15 03:14:22;;;;;;;12.40;8.57;;;;;;;;;;5020896;28;20013;-58
2021/09/15 03:16:48;;;;;;;12.00;8.05;;;;;;;;;;5018132;28;20028;-58
2021/09/15 03:19:13;;;;;;;15.05;8.77;;;;;;;;;;5015433;28;20352;-58
2021/09/15 03:21:41;;;;;;;11.32;8.27;;;;;;;;;;5019961;28;20033;-57
2021/09/15 03:24:07;;;;;;;12.25;8.30;;;;;;;;;;5018537;28;20103;-58
2021/09/15 03:26:32;;;;;;;12.77;8.25;;;;;;;;;;5017692;28;20038;-58
2021/09/15 03:28:57;;;;;;;15.45;9.45;;;;;;;;;;5024490;28;20017;-57
2021/09/15 03:31:23;;;;;;;14.63;9.80;;;;;;;;;;5018888;28;20033;-58
2021/09/15 03:33:48;;;;;;;12.35;8.40;;;;;;;;;;5016802;28;20094;-57
2021/09/15 03:36:14;;;;;;;15.35;8.98;;;;;;;;;;5020588;28;20383;-58
2021/09/15 03:38:39;;;;;;;14.48;8.38;;;;;;;;;;5019830;28;20033;-58
2021/09/15 03:41:05;;;;;;;14.23;8.80;;;;;;;;;;5019174;28;20102;-58
2021/09/15 03:43:30;;;;;;;16.58;8.98;;;;;;;;;;5019318;28;20520;-58
2021/09/15 03:45:56;;;;;;;14.02;8.38;;;;;;;;;;5016128;28;20422;-58
2021/09/15 03:48:21;;;;;;;13.00;8.10;;;;;;;;;;5019480;28;20490;-57
2021/09/15 03:50:46;;;;;;;14.15;8.05;;;;;;;;;;5015139;28;20396;-57
2021/09/15 03:53:12;;;;;;;14.23;7.93;;;;;;;;;;5019962;28;20060;-57
2021/09/15 03:55:37;;;;;;;14.93;8.80;;;;;;;;;;5018144;28;20024;-57
2021/09/15 03:58:03;;;;;;;20.70;10.52;;;;;;;;;;5020453;28;20071;-58
2021/09/15 04:00:28;;;;;;;16.08;8.70;;;;;;;;;;5024759;28;20022;-57
2021/09/15 04:02:53;;;;;;;12.48;8.18;;;;;;;;;;5026224;28;20032;-58
2021/09/15 04:05:19;;;;;;;15.23;8.57;;;;;;;;;;5018621;28;20147;-58
2021/09/15 04:07:44;;;;;;;15.00;8.95;;;;;;;;;;5014842;28;20116;-58
2021/09/15 04:10:10;;;;;;;13.07;8.68;;;;;;;;;;5026856;28;20081;-58
2021/09/15 04:12:35;;;;;;;14.32;9.52;;;;;;;;;;5018563;28;20167;-58
2021/09/15 04:15:01;;;;;;;16.05;9.00;;;;;;;;;;5021586;28;20499;-58
2021/09/15 04:17:26;;;;;;;14.35;8.15;;;;;;;;;;5019741;28;20468;-58
2021/09/15 04:19:52;;;;;;;19.33;9.75;;;;;;;;;;5020106;28;20116;-57
2021/09/15 04:22:21;;;;;;;14.77;9.25;;;;;;;;;;5014408;28;20480;-58
2021/09/15 04:32:33;;;;;;;21.00;9.45;;;;;;;;;;5021944;28;20052;-58
2021/09/15 04:34:59;;;;;;;17.77;9.77;;;;;;;;;;5019663;28;20037;-57
2021/09/15 04:37:24;;;;;;;18.02;9.23;;;;;;;;;;5016309;28;20472;-58
2021/09/15 04:39:49;;;;;;;16.45;10.15;;;;;;;;;;5015669;28;20112;-58
2021/09/15 04:42:15;;;;;;;19.98;10.93;;;;;;;;;;5020261;28;20025;-58
2021/09/15 04:44:40;;;;;;;18.33;9.80;;;;;;;;;;5017451;28;20069;-58
2021/09/15 04:47:06;;;;;;;15.93;9.23;;;;;;;;;;5022915;28;20029;-57
2021/09/15 04:49:31;;;;;;;16.05;9.82;;;;;;;;;;5022766;28;20029;-58
2021/09/15 04:51:56;;;;;;;16.75;9.35;;;;;;;;;;5023713;28;20124;-58
2021/09/15 04:54:22;;;;;;;14.13;9.55;;;;;;;;;;5012490;28;20120;-58
2021/09/15 04:56:47;;;;;;;17.70;8.93;;;;;;;;;;5019245;28;20660;-57
2021/09/15 04:59:13;;;;;;;15.27;10.43;;;;;;;;;;5016134;28;20044;-58
2021/09/15 05:01:38;;;;;;;15.65;10.15;;;;;;;;;;5021223;28;20045;-57
2021/09/15 05:04:04;;;;;;;16.65;9.80;;;;;;;;;;5015229;28;20116;-55
2021/09/15 05:06:29;;;;;;;17.33;9.48;;;;;;;;;;5019304;28;20083;-55
2021/09/15 05:08:54;;;;;;;15.93;9.57;;;;;;;;;;5018545;28;20025;-55
2021/09/15 05:11:20;;;;;;;17.10;9.52;;;;;;;;;;5013307;28;20057;-55
2021/09/15 05:13:45;;;;;;;17.08;9.82;;;;;;;;;;5016362;28;20037;-55
2021/09/15 05:16:10;;;;;;;17.27;9.48;;;;;;;;;;5023665;28;20032;-55
2021/09/15 05:18:36;;;;;;;13.15;9.30;;;;;;;;;;5017218;28;20034;-55
2021/09/15 05:21:01;;;;;;;12.63;9.10;;;;;;;;;;5026338;28;20476;-58
2021/09/15 05:23:27;;;;;;;15.63;8.60;;;;;;;;;;5021465;28;20069;-58
2021/09/15 05:25:52;;;;;;;16.08;9.63;;;;;;;;;;5021202;28;20608;-58
2021/09/15 05:28:18;;;;;;;15.95;9.77;;;;;;;;;;5019106;28;20166;-58
2021/09/15 05:30:43;;;;;;;18.67;10.52;;;;;;;;;;5018318;28;20420;-58
2021/09/15 05:33:08;;;;;;;24.42;11.65;;;;;;;;;;5019461;28;20036;-58
2021/09/15 05:35:34;;;;;;;16.65;10.70;;;;;;;;;;5020216;28;20139;-58
2021/09/15 05:38:00;;;;;;;18.42;11.45;;;;;;;;;;5019789;28;20026;-58
2021/09/15 05:40:25;;;;;;;18.40;10.20;;;;;;;;;;5019611;28;20021;-58
2021/09/15 05:42:50;;;;;;;19.40;9.90;;;;;;;;;;5019345;28;20099;-58
2021/09/15 05:45:16;;;;;;;15.20;9.50;;;;;;;;;;5028548;28;20159;-59
2021/09/15 05:47:42;;;;;;;15.40;9.65;;;;;;;;;;5020378;28;20032;-58
2021/09/15 05:50:08;;;;;;;18.90;10.32;;;;;;;;;;5015563;28;20119;-58
2021/09/15 05:52:33;;;;;;;19.17;9.85;;;;;;;;;;5019416;28;20037;-58
2021/09/15 05:54:59;;;;;;;19.67;10.45;;;;;;;;;;5026439;28;20115;-59
2021/09/15 05:57:24;;;;;;;19.77;9.82;;;;;;;;;;5023668;28;20116;-58
2021/09/15 05:59:50;;;;;;;14.70;8.90;;;;;;;;;;5018529;28;20040;-58
2021/09/15 06:02:15;;;;;;;18.02;10.02;;;;;;;;;;5024177;28;20403;-59
2021/09/15 06:04:40;;;;;;;14.90;8.45;;;;;;;;;;5014280;28;20083;-58
2021/09/15 06:07:06;;;;;;;16.20;9.52;;;;;;;;;;5020996;28;20068;-59
2021/09/15 06:09:31;;;;;;;16.77;9.70;;;;;;;;;;5026244;28;20060;-59
2021/09/15 06:11:57;;;;;;;19.25;9.35;;;;;;;;;;5025475;28;20152;-59
2021/09/15 06:14:22;;;;;;;16.67;9.45;;;;;;;;;;5015932;28;20396;-59
2021/09/15 06:16:48;;;;;;;18.70;9.18;;;;;;;;;;5030555;28;20153;-59
2021/09/15 06:19:13;;;;;;;18.60;9.40;;;;;;;;;;5024692;28;20820;-60
2021/09/15 06:21:38;;;;;;;18.73;9.32;;;;;;;;;;5018466;28;20066;-59
2021/09/15 06:24:04;;;;;;;21.15;10.32;;;;;;;;;;5022695;28;20021;-59
2021/09/15 06:26:30;;;;;;;16.88;9.70;;;;;;;;;;5023276;28;20556;-59
2021/09/15 06:28:56;;;;;;;18.98;9.32;;;;;;;;;;5016019;28;20036;-59
2021/09/15 06:31:22;;;;;;;17.05;9.35;;;;;;;;;;5015012;28;20026;-59
2021/09/15 06:33:48;;;;;;;16.50;9.30;;;;;;;;;;5020806;28;20037;-59
2021/09/15 06:36:15;;;;;;;16.90;9.45;;;;;;;;;;5016697;28;20025;-59
2021/09/15 06:38:44;;;;;;;18.27;10.88;;;;;;;;;;5023425;28;20100;-59
2021/09/15 06:41:09;;;;;;;23.58;11.32;;;;;;;;;;5020151;28;20044;-59
2021/09/15 06:43:37;;;;;;;17.70;11.93;;;;;;;;;;5017617;28;20045;-58
2021/09/15 06:46:02;;;;;;;21.08;12.63;;;;;;;;;;5015978;28;20017;-58
2021/09/15 06:48:27;;;;;;;22.33;12.60;;;;;;;;;;5017393;28;20115;-58
2021/09/15 06:50:53;;;;;;;20.23;11.70;;;;;;;;;;5019232;28;20033;-58
2021/09/15 06:53:18;;;;;;;22.10;12.70;;;;;;;;;;5018883;28;20029;-58
2021/09/15 06:55:44;;;;;;;23.45;13.00;;;;;;;;;;5025529;28;20029;-58
2021/09/15 06:58:09;;;;;;;20.83;14.00;;;;;;;;;;5017782;28;20486;-58
2021/09/15 07:00:35;;;;;;;25.23;14.07;;;;;;;;;;5020321;28;20440;-58
2021/09/15 07:03:02;;;;;;;20.73;12.93;;;;;;;;;;5017910;28;20088;-59
2021/09/15 07:05:28;;;;;;;20.05;13.27;;;;;;;;;;5015315;28;20072;-58
2021/09/15 07:07:55;;;;;;;24.20;13.60;;;;;;;;;;5016860;28;20716;-58
2021/09/15 07:10:21;;;;;;;23.13;12.43;;;;;;;;;;5015521;28;20041;-58
2021/09/15 07:12:47;;;;;;;22.60;11.00;;;;;;;;;;5022358;28;20285;-58
2021/09/15 07:15:14;;;;;;;21.40;11.23;;;;;;;;;;5015185;28;20044;-58
2021/09/15 07:17:40;;;;;;;18.05;11.25;;;;;;;;;;5018964;28;20061;-58
2021/09/15 07:20:06;;;;;;;19.10;11.77;;;;;;;;;;5020578;28;20065;-58
2021/09/15 07:22:31;;;;;;;17.55;10.45;;;;;;;;;;5018510;28;20025;-58
2021/09/15 07:24:57;;;;;;;15.27;10.20;;;;;;;;;;5020869;28;20024;-58
2021/09/15 07:27:23;;;;;;;16.83;9.20;;;;;;;;;;5023603;28;20120;-58
2021/09/15 07:29:48;;;;;;;22.02;9.10;;;;;;;;;;5019274;28;20116;-58
2021/09/15 07:32:14;;;;;;;17.35;9.48;;;;;;;;;;5021538;28;20111;-58
2021/09/15 07:34:41;;;;;;;16.63;8.43;;;;;;;;;;5014829;28;20583;-58
2021/09/15 07:37:07;;;;;;;13.85;8.63;;;;;;;;;;5017204;28;20147;-58
2021/09/15 07:39:32;;;;;;;18.65;8.75;;;;;;;;;;5019589;28;20391;-58
2021/09/15 07:41:58;;;;;;;14.05;8.65;;;;;;;;;;5021243;28;20034;-58
2021/09/15 07:44:23;;;;;;;15.73;8.13;;;;;;;;;;5019346;28;20030;-58
2021/09/15 07:46:49;;;;;;;17.00;7.70;;;;;;;;;;5014875;28;20428;-58
2021/09/15 07:49:14;;;;;;;14.25;8.25;;;;;;;;;;5017710;28;20655;-58
2021/09/15 07:51:40;;;;;;;19.95;8.48;;;;;;;;;;5017407;28;20336;-58
2021/09/15 07:54:05;;;;;;;12.13;7.93;;;;;;;;;;5012918;28;20049;-58
2021/09/15 07:56:30;;;;;;;16.50;8.80;;;;;;;;;;5021150;28;20055;-58
2021/09/15 07:58:56;;;;;;;14.45;8.43;;;;;;;;;;5014714;28;20021;-58
2021/09/15 08:01:24;;;;;;;18.10;8.18;;;;;;;;;;5019787;28;20578;-58
2021/09/15 08:03:50;;;;;;;12.75;7.13;;;;;;;;;;5017903;28;20032;-58
2021/09/15 08:06:15;;;;;;;15.80;8.48;;;;;;;;;;5014306;28;20026;-58
2021/09/15 08:08:41;;;;;;;13.82;7.07;;;;;;;;;;5013838;28;20025;-57
2021/09/15 08:11:06;;;;;;;12.77;7.20;;;;;;;;;;5021312;28;20056;-58
2021/09/15 08:13:32;;;;;;;11.80;6.97;;;;;;;;;;5013932;28;20022;-58
2021/09/15 08:15:57;;;;;;;16.63;6.97;;;;;;;;;;5022000;28;20566;-57
2021/09/15 08:18:23;;;;;;;15.43;8.23;;;;;;;;;;5027240;28;20035;-58
2021/09/15 08:20:48;;;;;;;12.82;7.32;;;;;;;;;;5022406;28;20049;-57
2021/09/15 08:23:15;;;;;;;11.23;6.63;;;;;;;;;;5019238;28;20022;-58
2021/09/15 08:25:41;;;;;;;20.05;7.00;;;;;;;;;;5021377;28;20493;-57
2021/09/15 08:28:06;;;;;;;12.43;6.93;;;;;;;;;;5012833;28;20041;-58
2021/09/15 08:30:32;;;;;;;13.23;6.78;;;;;;;;;;5016468;28;20054;-58
2021/09/15 08:32:58;;;;;;;14.70;7.70;;;;;;;;;;5021207;28;20269;-57
2021/09/15 08:35:24;;;;;;;13.05;7.03;;;;;;;;;;5020858;28;20531;-58
2021/09/15 08:37:49;;;;;;;14.90;7.15;;;;;;;;;;5016317;28;20033;-58
2021/09/15 08:40:14;;;;;;;16.23;7.57;;;;;;;;;;5018427;28;20304;-58
2021/09/15 08:42:40;;;;;;;16.20;7.78;;;;;;;;;;5019877;28;20037;-58
2021/09/15 08:45:07;;;;;;;12.13;6.28;;;;;;;;;;5018328;28;20037;-58
2021/09/15 08:47:37;;;;;;;14.00;6.68;;;;;;;;;;5019936;28;20137;-57
2021/09/15 08:50:04;;;;;;;11.02;6.28;;;;;;;;;;5026762;28;20371;-58
2021/09/15 08:52:29;;;;;;;11.85;6.63;;;;;;;;;;5016504;28;20036;-57
2021/09/15 08:54:55;;;;;;;12.80;6.00;;;;;;;;;;5015321;28;20038;-57
2021/09/15 08:57:21;;;;;;;19.60;6.63;;;;;;;;;;5024735;28;20116;-57
2021/09/15 08:59:46;;;;;;;14.23;6.45;;;;;;;;;;5020211;28;20053;-58
2021/09/15 09:02:13;;;;;;;12.15;6.97;;;;;;;;;;5022375;28;20075;-58
2021/09/15 09:05:02;;;;;;;17.30;7.50;;;;;;;;;;5015525;28;20426;-57
2021/09/15 09:07:30;;;;;;;16.52;7.65;;;;;;;;;;5010955;28;20396;-58
2021/09/15 09:09:59;;;;;;;14.18;7.40;;;;;;;;;;5013663;28;20041;-58
2021/09/15 09:12:27;;;;;;;18.52;8.27;;;;;;;;;;5013174;28;20025;-58
2021/09/15 09:15:09;;;;;;;14.88;7.75;;;;;;;;;;5018575;28;20070;-57
2021/09/15 09:17:35;;;;;;;13.18;7.32;;;;;;;;;;5020718;28;20048;-57
2021/09/15 09:20:27;;;;;;;13.13;7.32;;;;;;;;;;5018161;28;20033;-57
2021/09/15 09:23:13;;;;;;;13.27;7.40;;;;;;;;;;5014813;28;20046;-57
2021/09/15 09:25:54;;;;;;;16.63;7.10;;;;;;;;;;5021692;28;20045;-58
2021/09/15 09:28:29;;;;;;;17.23;7.47;;;;;;;;;;5018990;28;20032;-58
2021/09/15 09:31:06;;;;;;;15.82;7.55;;;;;;;;;;5017673;28;20036;-57
2021/09/15 09:33:32;;;;;;;14.65;7.63;;;;;;;;;;5016306;28;20026;-58
2021/09/15 09:36:07;;;;;;;14.45;7.68;;;;;;;;;;5024155;28;20025;-58
2021/09/15 09:38:44;;;;;;;12.60;7.32;;;;;;;;;;5020552;28;20438;-57
2021/09/15 09:41:16;;;;;;;13.27;7.15;;;;;;;;;;5015301;28;20029;-58
2021/09/15 09:43:47;;;;;;;14.05;7.40;;;;;;;;;;5017281;28;20056;-58
2021/09/15 09:46:17;;;;;;;17.40;7.70;;;;;;;;;;5019558;28;20028;-58
2021/09/15 09:48:56;;;;;;;13.15;7.85;;;;;;;;;;5020496;28;20105;-58
2021/09/15 09:51:21;;;;;;;;;;;;;;;;;;5023506;28;20287;-59
2021/09/15 09:53:48;;;;;;;13.43;7.28;;;;;;;;;;5027170;28;19921;-59
2021/09/15 09:56:13;;;;;;;14.43;6.88;;;;;;;;;;5021929;28;20057;-58
2021/09/15 09:58:43;;;;;;;11.88;7.32;;;;;;;;;;5014174;28;20063;-58
2021/09/15 10:01:15;;;;;;;20.92;7.88;;;;;;;;;;5019993;28;20074;-59
2021/09/15 10:03:41;;;;;;;13.23;7.80;;;;;;;;;;5022174;28;20029;-58
2021/09/15 10:06:08;;;;;;;13.32;7.35;;;;;;;;;;5017663;28;20025;-58
2021/09/15 10:08:35;;;;;;;11.80;7.25;;;;;;;;;;5021638;28;20049;-58
2021/09/15 10:11:00;;;;;;;13.45;7.10;;;;;;;;;;5018688;28;20071;-58
2021/09/15 10:13:26;;;;;;;14.05;7.25;;;;;;;;;;5022409;28;20372;-57
2021/09/15 10:15:57;;;;;;;15.93;7.47;;;;;;;;;;5023663;28;20025;-58
2021/09/15 10:18:24;;;;;;;11.60;7.60;;;;;;;;;;5020168;28;20069;-58
2021/09/15 10:20:53;;;;;;;11.88;7.00;;;;;;;;;;5022065;28;20038;-57
2021/09/15 10:23:38;;;;;;;10.93;7.00;;;;;;;;;;5019957;28;20075;-58
2021/09/15 10:26:34;;;;;;;11.98;6.88;;;;;;;;;;5015802;28;20389;-57
2021/09/15 10:29:29;;;;;;;11.93;7.03;;;;;;;;;;5022935;28;20025;-57
2021/09/15 10:32:11;;;;;;;11.00;7.45;;;;;;;;;;5021534;28;20123;-57
2021/09/15 10:34:39;;;;;;;15.48;7.30;;;;;;;;;;5011781;28;20308;-57
2021/09/15 10:37:09;;;;;;;10.95;7.47;;;;;;;;;;5021246;28;20052;-56
2021/09/15 10:40:12;;;;;;;14.02;6.97;;;;;;;;;;5025905;28;20037;-57
2021/09/15 10:42:48;;;;;;;11.98;6.90;;;;;;;;;;5016759;28;20519;-57
2021/09/15 10:45:15;;;;;;;14.45;6.97;;;;;;;;;;5018617;28;20029;-58
2021/09/15 10:47:47;;;;;;;13.45;6.63;;;;;;;;;;5017957;28;20098;-57
2021/09/15 10:50:37;;;;;;;13.43;7.72;;;;;;;;;;5024866;28;20105;-57
2021/09/15 10:53:09;;;;;;;12.23;7.15;;;;;;;;;;5020681;28;20054;-57
2021/09/15 10:55:42;;;;;;;14.63;7.65;;;;;;;;;;5022187;28;20021;-57
2021/09/15 10:58:12;;;;;;;14.50;7.35;;;;;;;;;;5021425;28;20033;-57
2021/09/15 11:00:55;;;;;;;14.13;7.47;;;;;;;;;;5014197;28;20527;-57
2021/09/15 11:03:32;;;;;;;14.60;7.22;;;;;;;;;;5026115;28;20029;-57
2021/09/15 11:06:18;;;;;;;12.25;6.85;;;;;;;;;;5017328;28;20402;-57
2021/09/15 11:08:48;;;;;;;12.23;7.10;;;;;;;;;;5016621;28;20156;-57
2021/09/15 11:11:19;;;;;;;17.70;7.40;;;;;;;;;;5020476;28;20039;-58
2021/09/15 11:13:52;;;;;;;10.20;6.97;;;;;;;;;;5017146;28;20038;-57
2021/09/15 11:16:26;;;;;;;14.05;7.28;;;;;;;;;;5022265;28;20078;-58
2021/09/15 11:19:03;;;;;;;13.40;7.63;;;;;;;;;;5022338;28;20365;-57
2021/09/15 11:21:30;;;;;;;12.23;8.15;;;;;;;;;;5021540;28;20164;-58
2021/09/15 11:24:03;;;;;;;13.75;7.03;;;;;;;;;;5011328;28;20040;-58
2021/09/15 11:26:47;;;;;;;11.13;7.10;;;;;;;;;;5022638;28;20025;-58
2021/09/15 11:29:14;;;;;;;12.85;6.97;;;;;;;;;;5014145;28;20025;-58
2021/09/15 11:31:41;;;;;;;13.55;7.03;;;;;;;;;;5019935;28;20504;-57
2021/09/15 11:34:14;;;;;;;11.20;6.65;;;;;;;;;;5016576;28;20060;-57
2021/09/15 11:36:48;;;;;;;11.20;6.60;;;;;;;;;;5014017;28;20040;-58
2021/09/15 11:39:17;;;;;;;9.63;6.80;;;;;;;;;;5020238;28;20037;-58
2021/09/15 11:41:42;;;;;;;9.15;6.20;;;;;;;;;;5021367;28;20025;-58
2021/09/15 11:44:07;;;;;;;10.48;6.20;;;;;;;;;;5018980;28;20033;-58
2021/09/15 11:46:36;;;;;;;9.70;6.10;;;;;;;;;;5016746;28;20030;-57
2021/09/15 11:49:03;;;;;;;10.95;6.20;;;;;;;;;;5019852;28;20024;-58
2021/09/15 11:51:36;;;;;;;13.18;6.28;;;;;;;;;;5018758;28;20030;-58
2021/09/15 11:54:16;;;;;;;9.90;5.70;;;;;;;;;;5017500;28;20074;-58
2021/09/15 11:56:52;;;;;;;12.82;6.03;;;;;;;;;;5012268;28;20492;-58
2021/09/15 11:59:18;;;;;;;10.35;5.93;;;;;;;;;;5021223;28;20034;-58
2021/09/15 12:01:45;;;;;;;10.15;5.65;;;;;;;;;;5019639;28;20239;-58
2021/09/15 12:04:15;;;;;;;12.02;6.80;;;;;;;;;;5012656;28;20045;-58
2021/09/15 12:06:41;;;;;;;11.00;5.63;;;;;;;;;;5016324;28;20061;-58
2021/09/15 12:09:08;;;;;;;9.77;5.80;;;;;;;;;;5021661;28;20368;-58
2021/09/15 12:11:36;;;;;;;9.95;5.57;;;;;;;;;;5012684;28;20548;-57
2021/09/15 12:14:05;;;;;;;12.60;5.97;;;;;;;;;;5020907;28;20021;-58
2021/09/15 12:16:34;;;;;;;10.85;5.93;;;;;;;;;;5024521;28;20155;-57
2021/09/15 12:19:00;;;;;;;12.13;6.45;;;;;;;;;;5015521;28;20025;-57
2021/09/15 12:21:28;;;;;;;9.25;5.47;;;;;;;;;;5015465;28;20480;-58
2021/09/15 12:24:06;;;;;;;11.90;5.38;;;;;;;;;;5018870;28;20033;-58
2021/09/15 12:26:31;;;;;;;9.48;5.95;;;;;;;;;;5015020;28;20084;-57
2021/09/15 12:29:09;;;;;;;11.98;5.57;;;;;;;;;;5016198;28;20025;-57
2021/09/15 12:31:46;;;;;;;12.60;5.78;;;;;;;;;;5012739;28;20033;-57
2021/09/15 12:34:30;;;;;;;10.10;5.18;;;;;;;;;;5019002;28;20487;-57
2021/09/15 12:37:19;;;;;;;11.50;5.55;;;;;;;;;;5023165;28;20029;-58
2021/09/15 12:39:55;;;;;;;11.45;5.28;;;;;;;;;;5010602;28;20037;-57
2021/09/15 12:42:30;;;;;;;12.70;5.80;;;;;;;;;;5019802;28;20044;-57
2021/09/15 12:45:11;;;;;;;13.23;5.53;;;;;;;;;;5017009;28;20031;-57
2021/09/15 12:47:38;;;;;;;11.50;6.25;;;;;;;;;;5020158;28;20488;-57
2021/09/15 12:50:24;;;;;;;12.80;6.07;;;;;;;;;;5019783;28;20025;-57
2021/09/15 12:53:06;;;;;;;11.27;5.97;;;;;;;;;;5012483;28;20065;-57
2021/09/15 12:55:33;;;;;;;7.90;5.25;;;;;;;;;;5019001;28;20045;-58
2021/09/15 12:58:01;;;;;;;10.10;5.90;;;;;;;;;;5017541;28;20033;-57
2021/09/15 13:00:31;;;;;;;11.10;5.63;;;;;;;;;;5016952;28;20603;-58
2021/09/15 13:02:58;;;;;;;9.80;5.63;;;;;;;;;;5011860;28;20048;-58
2021/09/15 13:05:24;;;;;;;11.60;5.65;;;;;;;;;;5017309;28;20555;-58
2021/09/15 13:07:52;;;;;;;10.32;5.32;;;;;;;;;;5018745;28;20029;-58
2021/09/15 13:10:17;;;;;;;9.73;6.00;;;;;;;;;;5017319;28;20026;-58
2021/09/15 13:12:42;;;;;;;11.25;5.82;;;;;;;;;;5023198;28;20369;-57
2021/09/15 13:15:09;;;;;;;8.48;5.53;;;;;;;;;;5015531;28;20562;-57
2021/09/15 13:17:34;;;;;;;10.55;5.63;;;;;;;;;;5026261;28;20029;-57
2021/09/15 13:20:00;;;;;;;12.35;5.47;;;;;;;;;;5026974;28;20025;-58
2021/09/15 13:22:25;;;;;;;12.27;5.25;;;;;;;;;;5021979;28;20030;-57
2021/09/15 13:24:51;;;;;;;11.52;5.60;;;;;;;;;;5018968;28;20673;-58
2021/09/15 13:27:18;;;;;;;9.80;5.80;;;;;;;;;;5020948;28;20040;-58
2021/09/15 13:29:44;;;;;;;13.63;5.57;;;;;;;;;;5020891;28;20440;-58
2021/09/15 13:32:11;;;;;;;13.75;6.05;;;;;;;;;;5017654;28;20018;-58
2021/09/15 13:34:37;;;;;;;11.57;5.40;;;;;;;;;;5016426;28;20078;-58
2021/09/15 13:37:03;;;;;;;12.50;6.00;;;;;;;;;;5022908;28;20033;-57
2021/09/15 13:39:33;;;;;;;11.38;5.70;;;;;;;;;;5022610;28;20032;-58
2021/09/15 13:41:59;;;;;;;10.98;6.00;;;;;;;;;;5014108;28;20030;-58
2021/09/15 13:44:25;;;;;;;10.20;5.13;;;;;;;;;;5021520;28;20558;-58
2021/09/15 13:46:51;;;;;;;12.15;5.90;;;;;;;;;;5022461;28;20060;-58
2021/09/15 13:49:19;;;;;;;11.77;6.00;;;;;;;;;;5020197;28;20113;-58
2021/09/15 13:51:45;;;;;;;10.95;5.95;;;;;;;;;;5022889;28;20034;-58
2021/09/15 13:54:10;;;;;;;7.47;5.40;;;;;;;;;;5024202;28;20040;-58
2021/09/15 13:56:36;;;;;;;9.05;5.55;;;;;;;;;;5017268;28;20433;-58
2021/09/15 13:59:02;;;;;;;10.60;6.40;;;;;;;;;;5021698;28;20068;-58
2021/09/15 14:01:27;;;;;;;14.02;5.88;;;;;;;;;;5019481;28;20025;-58
2021/09/15 14:03:52;;;;;;;8.73;5.63;;;;;;;;;;5013447;28;20033;-57
2021/09/15 14:06:18;;;;;;;9.27;6.15;;;;;;;;;;5023748;28;20021;-58
2021/09/15 14:08:43;;;;;;;12.02;6.50;;;;;;;;;;5023803;28;20037;-59
2021/09/15 14:11:09;;;;;;;10.88;6.03;;;;;;;;;;5021075;28;20026;-58
2021/09/15 14:13:34;;;;;;;10.43;6.20;;;;;;;;;;5019091;28;20095;-58
2021/09/15 14:16:00;;;;;;;9.65;5.50;;;;;;;;;;5021070;28;20574;-58
2021/09/15 14:18:26;;;;;;;9.48;6.00;;;;;;;;;;5020914;28;20037;-58
2021/09/15 14:20:51;;;;;;;13.82;6.10;;;;;;;;;;5022590;28;20028;-58
2021/09/15 14:23:17;;;;;;;14.82;5.85;;;;;;;;;;5017518;28;20075;-58
2021/09/15 14:25:42;;;;;;;9.85;5.47;;;;;;;;;;5022364;28;20052;-58
2021/09/15 14:28:08;;;;;;;10.05;6.22;;;;;;;;;;5018416;28;20329;-58
2021/09/15 14:30:33;;;;;;;9.63;6.10;;;;;;;;;;5016972;28;20028;-58
2021/09/15 14:32:58;;;;;;;10.38;5.68;;;;;;;;;;5015241;28;20432;-58
2021/09/15 14:35:24;;;;;;;8.75;5.15;;;;;;;;;;5020470;28;20309;-59
2021/09/15 14:37:50;;;;;;;10.13;5.65;;;;;;;;;;5017136;28;20101;-57
2021/09/15 14:40:15;;;;;;;11.85;5.72;;;;;;;;;;5018384;28;20403;-59